Time;durP1;ratioP1;P1;durP2;ratioP2;P2;SDS_P1;SDS_P2;PMS_P1;PMS_P2;Temp;Humidity;BMP_temperature;BMP_pressure;BME280_temperature;BME280_humidity;BME280_pressure;Samples;Min_cycle;Max_cycle;Signal;HPM_P1;HPM_P2
2022/09/10 00:01:43;;;;;;;4.90;1.65;;;16.70;99.90;;;;;;2612407;54;20284;-65
2022/09/10 00:04:17;;;;;;;2.42;0.90;;;16.70;99.90;;;;;;2612511;54;20168;-64
2022/09/10 00:06:47;;;;;;;2.40;1.20;;;16.80;99.90;;;;;;2611552;54;20179;-63
2022/09/10 00:09:17;;;;;;;3.85;1.10;;;16.70;99.90;;;;;;2612303;54;20243;-64
2022/09/10 00:11:47;;;;;;;3.15;1.40;;;16.80;99.90;;;;;;2615255;50;20184;-64
2022/09/10 00:14:19;;;;;;;1.92;1.02;;;16.70;99.90;;;;;;2614402;39;20578;-64
2022/09/10 00:16:49;;;;;;;3.45;1.23;;;16.70;99.90;;;;;;2611657;54;20281;-64
2022/09/10 00:19:21;;;;;;;1.58;1.20;;;16.70;99.90;;;;;;2612792;47;20248;-64
2022/09/10 00:21:51;;;;;;;2.97;1.25;;;16.60;99.90;;;;;;2613025;54;20264;-63
2022/09/10 00:24:21;;;;;;;4.22;1.10;;;16.70;99.90;;;;;;2614538;39;20536;-63
2022/09/10 00:26:51;;;;;;;5.25;1.40;;;16.70;99.90;;;;;;2614317;54;20185;-64
2022/09/10 00:29:21;;;;;;;3.63;1.25;;;16.80;99.90;;;;;;2612932;54;20770;-63
2022/09/10 00:31:51;;;;;;;2.28;1.20;;;16.80;99.90;;;;;;2613945;31;20667;-64
2022/09/10 00:34:23;;;;;;;3.33;1.27;;;16.80;99.90;;;;;;2612444;47;20268;-65
2022/09/10 00:36:53;;;;;;;2.78;1.20;;;16.80;99.90;;;;;;2613678;54;20153;-65
2022/09/10 00:39:22;;;;;;;3.85;1.40;;;16.80;99.90;;;;;;2615636;31;20704;-65
2022/09/10 00:41:52;;;;;;;3.92;1.30;;;16.90;99.90;;;;;;2616619;54;20242;-65
2022/09/10 00:44:53;;;;;;;3.38;1.30;;;16.90;99.90;;;;;;2623019;46;20188;-65
2022/09/10 00:47:28;;;;;;;1.90;1.00;;;16.90;99.90;;;;;;2613682;50;20205;-65
2022/09/10 00:50:05;;;;;;;2.45;1.30;;;16.90;99.90;;;;;;2613882;39;20537;-65
2022/09/10 00:52:36;;;;;;;3.03;1.70;;;16.90;99.90;;;;;;2613129;54;20200;-64
2022/09/10 00:55:10;;;;;;;2.45;1.58;;;16.90;99.90;;;;;;2613883;54;20999;-64
2022/09/10 00:57:40;;;;;;;4.25;1.50;;;16.90;99.90;;;;;;2612981;54;20195;-64
2022/09/10 01:00:13;;;;;;;3.58;1.55;;;16.90;99.90;;;;;;2612519;39;20654;-64
2022/09/10 01:02:43;;;;;;;3.10;1.60;;;16.90;99.90;;;;;;2613285;54;20196;-65
2022/09/10 01:05:17;;;;;;;3.70;1.75;;;16.90;99.90;;;;;;2616289;54;20160;-64
2022/09/10 01:07:47;;;;;;;3.92;1.85;;;16.90;99.90;;;;;;2614580;54;20168;-64
2022/09/10 01:10:20;;;;;;;2.63;1.67;;;16.90;99.90;;;;;;2613601;39;20299;-65
2022/09/10 01:13:10;;;;;;;3.85;1.60;;;16.90;99.90;;;;;;2613184;54;20195;-64
2022/09/10 01:15:46;;;;;;;5.20;1.92;;;16.90;99.90;;;;;;2613558;54;20168;-64
2022/09/10 01:18:29;;;;;;;2.70;2.10;;;16.90;99.90;;;;;;2614330;47;20291;-64
2022/09/10 01:21:23;;;;;;;3.42;2.25;;;16.90;99.90;;;;;;2614382;54;20173;-63
2022/09/10 01:24:12;;;;;;;5.57;1.92;;;17.00;99.90;;;;;;2614006;54;20153;-63
2022/09/10 01:27:05;;;;;;;4.03;2.15;;;16.90;99.90;;;;;;2614675;54;20285;-64
2022/09/10 01:29:43;;;;;;;2.20;2.00;;;16.90;99.90;;;;;;2620991;54;20551;-64
2022/09/10 01:32:15;;;;;;;3.50;1.92;;;17.00;99.90;;;;;;2619287;54;21020;-64
2022/09/10 01:34:49;;;;;;;4.22;2.35;;;16.90;99.90;;;;;;2616371;54;20561;-64
2022/09/10 01:37:26;;;;;;;6.63;2.35;;;16.90;99.90;;;;;;2615466;47;20236;-64
2022/09/10 01:39:58;;;;;;;3.45;2.42;;;16.90;99.90;;;;;;2618187;39;20373;-64
2022/09/10 01:42:28;;;;;;;3.65;2.22;;;16.90;99.90;;;;;;2620703;51;20192;-64
2022/09/10 01:45:00;;;;;;;5.82;2.00;;;16.90;99.90;;;;;;2613532;54;20159;-64
2022/09/10 01:47:56;;;;;;;4.10;2.25;;;16.90;99.90;;;;;;2613110;54;20211;-64
2022/09/10 01:50:33;;;;;;;4.70;2.42;;;16.90;99.90;;;;;;2613677;54;20171;-65
2022/09/10 01:53:15;;;;;;;4.32;2.28;;;16.90;99.90;;;;;;2613933;54;20299;-64
2022/09/10 01:55:52;;;;;;;7.18;2.53;;;16.90;99.90;;;;;;2619430;54;20152;-64
2022/09/10 01:58:27;;;;;;;5.15;2.28;;;16.90;99.90;;;;;;2621441;54;20185;-64
2022/09/10 02:01:10;;;;;;;3.88;2.40;;;17.00;99.90;;;;;;2618089;54;20321;-64
2022/09/10 02:03:43;;;;;;;3.58;2.25;;;17.00;99.90;;;;;;2618221;54;20255;-64
2022/09/10 02:06:17;;;;;;;5.07;2.70;;;17.00;99.90;;;;;;2618388;54;20164;-64
2022/09/10 02:08:50;;;;;;;6.82;2.92;;;17.00;99.90;;;;;;2619470;54;20156;-64
2022/09/10 02:11:20;;;;;;;5.13;2.42;;;17.00;99.90;;;;;;2615907;54;20291;-65
2022/09/10 02:13:50;;;;;;;9.38;2.42;;;17.00;99.90;;;;;;2616705;39;20612;-65
2022/09/10 02:16:29;;;;;;;5.43;2.50;;;17.00;99.90;;;;;;2616070;54;20205;-64
2022/09/10 02:19:00;;;;;;;6.90;3.03;;;17.00;99.90;;;;;;2613480;47;20698;-64
2022/09/10 02:21:30;;;;;;;7.45;2.65;;;17.00;99.90;;;;;;2615511;54;20184;-64
2022/09/10 02:24:05;;;;;;;8.27;3.03;;;17.00;99.90;;;;;;2616826;54;20201;-64
2022/09/10 02:26:35;;;;;;;6.32;2.75;;;16.90;99.90;;;;;;2624026;54;20199;-65
2022/09/10 02:29:06;;;;;;;10.57;3.15;;;16.90;99.90;;;;;;2617047;47;20176;-65
2022/09/10 02:31:38;;;;;;;7.32;3.25;;;16.90;99.90;;;;;;2614430;54;20192;-64
2022/09/10 02:34:08;;;;;;;5.53;3.10;;;16.90;99.90;;;;;;2612944;47;20195;-64
2022/09/10 02:36:38;;;;;;;7.32;3.33;;;16.90;99.90;;;;;;2619076;47;20156;-63
2022/09/10 02:39:08;;;;;;;8.85;3.15;;;16.90;99.90;;;;;;2615925;39;20408;-64
2022/09/10 02:41:39;;;;;;;6.43;3.00;;;16.90;99.90;;;;;;2614163;54;20296;-64
2022/09/10 02:44:10;;;;;;;3.97;2.97;;;16.90;99.90;;;;;;2617417;54;20162;-64
2022/09/10 02:46:43;;;;;;;7.15;3.28;;;16.90;99.90;;;;;;2619994;47;20165;-64
2022/09/10 02:49:13;;;;;;;7.38;2.97;;;16.90;99.90;;;;;;2615882;54;20197;-65
2022/09/10 02:51:43;;;;;;;6.03;2.78;;;16.90;99.90;;;;;;2612538;54;20332;-65
2022/09/10 02:54:13;;;;;;;6.07;3.08;;;16.90;99.90;;;;;;2614214;54;20152;-64
2022/09/10 02:56:43;;;;;;;9.38;2.88;;;16.80;99.90;;;;;;2615270;54;20220;-64
2022/09/10 02:59:13;;;;;;;6.05;2.88;;;16.80;99.90;;;;;;2614336;47;20244;-64
2022/09/10 03:01:47;;;;;;;7.38;3.25;;;16.80;99.90;;;;;;2614920;47;20276;-65
2022/09/10 03:04:17;;;;;;;7.80;3.40;;;16.80;99.90;;;;;;2613186;39;21991;-64
2022/09/10 03:06:48;;;;;;;5.20;2.72;;;16.70;99.90;;;;;;2614268;47;20511;-64
2022/09/10 03:09:18;;;;;;;7.45;2.92;;;16.70;99.90;;;;;;2613053;54;20156;-65
2022/09/10 03:11:47;;;;;;;4.20;3.08;;;16.70;99.90;;;;;;2612766;54;20781;-64
2022/09/10 03:14:19;;;;;;;7.40;3.08;;;16.70;99.90;;;;;;2612673;54;20157;-64
2022/09/10 03:16:51;;;;;;;6.35;3.08;;;16.70;99.90;;;;;;2613208;54;20161;-64
2022/09/10 03:19:21;;;;;;;4.95;2.85;;;16.70;99.90;;;;;;2612055;54;20296;-64
2022/09/10 03:21:51;;;;;;;5.90;2.90;;;16.70;99.90;;;;;;2613304;54;20279;-63
2022/09/10 03:24:21;;;;;;;5.65;3.13;;;16.70;99.90;;;;;;2613690;54;20156;-64
2022/09/10 03:26:51;;;;;;;5.85;2.85;;;16.70;99.90;;;;;;2610907;54;20256;-64
2022/09/10 03:29:21;;;;;;;3.80;2.70;;;16.70;99.90;;;;;;2612267;54;20179;-64
2022/09/10 03:31:54;;;;;;;5.50;2.75;;;16.70;99.90;;;;;;2613108;54;20270;-64
2022/09/10 03:34:24;;;;;;;8.45;2.80;;;16.70;99.90;;;;;;2616663;47;20160;-64
2022/09/10 03:36:53;;;;;;;4.65;3.00;;;16.70;99.90;;;;;;2621055;47;20168;-63
2022/09/10 03:39:23;;;;;;;7.00;3.40;;;16.70;99.90;;;;;;2621774;47;20164;-64
2022/09/10 03:41:53;;;;;;;3.75;2.92;;;16.70;99.90;;;;;;2621880;54;20184;-65
2022/09/10 03:44:23;;;;;;;3.55;2.88;;;16.70;99.90;;;;;;2621061;54;20153;-65
2022/09/10 03:46:55;;;;;;;5.50;2.92;;;16.70;99.90;;;;;;2621404;54;20165;-65
2022/09/10 03:49:24;;;;;;;4.55;2.75;;;16.70;99.90;;;;;;2621824;47;20164;-65
2022/09/10 03:51:55;;;;;;;3.22;2.70;;;16.80;99.90;;;;;;2618543;54;20199;-64
2022/09/10 03:54:24;;;;;;;5.50;3.25;;;16.70;99.90;;;;;;2614217;54;20168;-64
2022/09/10 03:56:54;;;;;;;7.88;3.00;;;16.70;99.90;;;;;;2620941;54;20153;-64
2022/09/10 03:59:23;;;;;;;4.57;2.83;;;16.70;99.90;;;;;;2613397;54;20341;-65
2022/09/10 04:01:56;;;;;;;6.70;3.30;;;16.70;99.90;;;;;;2614342;31;20668;-65
2022/09/10 04:04:26;;;;;;;5.72;3.08;;;16.70;99.90;;;;;;2613005;54;20167;-65
2022/09/10 04:06:55;;;;;;;6.63;3.28;;;16.70;99.90;;;;;;2614601;31;20656;-64
2022/09/10 04:09:25;;;;;;;5.25;3.25;;;16.70;99.90;;;;;;2614256;47;20280;-65
2022/09/10 04:11:55;;;;;;;4.43;3.05;;;16.70;99.90;;;;;;2615264;54;20283;-64
2022/09/10 04:14:25;;;;;;;4.78;2.95;;;16.60;99.90;;;;;;2613796;54;20754;-64
2022/09/10 04:16:57;;;;;;;4.00;3.00;;;16.70;99.90;;;;;;2612003;47;20193;-64
2022/09/10 04:19:28;;;;;;;4.05;3.08;;;16.70;99.90;;;;;;2614310;39;20554;-65
2022/09/10 04:21:57;;;;;;;6.53;3.13;;;16.60;99.90;;;;;;2614130;39;20686;-65
2022/09/10 04:24:27;;;;;;;4.15;3.15;;;16.70;99.90;;;;;;2614151;54;20292;-64
2022/09/10 04:26:57;;;;;;;6.30;3.45;;;16.70;99.90;;;;;;2612295;54;20305;-64
2022/09/10 04:29:27;;;;;;;4.85;3.40;;;16.60;99.90;;;;;;2612887;54;20252;-64
2022/09/10 04:31:59;;;;;;;6.38;3.55;;;16.60;99.90;;;;;;2613787;31;20660;-64
2022/09/10 04:34:29;;;;;;;5.97;3.20;;;16.60;99.90;;;;;;2613530;54;20256;-65
2022/09/10 04:36:59;;;;;;;4.57;3.15;;;16.60;99.90;;;;;;2614924;54;20187;-65
2022/09/10 04:39:28;;;;;;;5.38;3.47;;;16.60;99.90;;;;;;2618246;47;20156;-64
2022/09/10 04:41:58;;;;;;;6.65;3.45;;;16.60;99.90;;;;;;2616511;54;20231;-64
2022/09/10 04:44:28;;;;;;;6.43;3.45;;;16.60;99.90;;;;;;2614057;54;20207;-64
2022/09/10 04:47:00;;;;;;;4.35;3.50;;;16.60;99.90;;;;;;2614474;54;20160;-64
2022/09/10 04:49:30;;;;;;;6.90;4.05;;;16.60;99.90;;;;;;2613495;54;20196;-65
2022/09/10 04:51:59;;;;;;;6.75;3.67;;;16.60;99.90;;;;;;2612980;54;20312;-64
2022/09/10 04:54:29;;;;;;;7.72;3.90;;;16.70;99.90;;;;;;2612443;54;20183;-64
2022/09/10 04:56:59;;;;;;;6.72;3.55;;;16.70;99.90;;;;;;2614217;54;20205;-65
2022/09/10 04:59:29;;;;;;;6.72;3.80;;;16.70;99.90;;;;;;2613387;54;20232;-64
2022/09/10 05:02:02;;;;;;;8.05;4.43;;;16.70;99.90;;;;;;2612738;54;20184;-64
2022/09/10 05:04:32;;;;;;;4.60;3.30;;;16.70;99.90;;;;;;2615651;54;20253;-65
2022/09/10 05:07:01;;;;;;;8.40;3.88;;;16.70;99.90;;;;;;2624042;46;20195;-65
2022/09/10 05:09:32;;;;;;;5.30;3.50;;;16.70;99.90;;;;;;2616966;54;20156;-64
2022/09/10 05:12:02;;;;;;;8.73;3.53;;;16.70;99.90;;;;;;2613299;47;20280;-64
2022/09/10 05:14:32;;;;;;;5.38;3.80;;;16.70;99.90;;;;;;2614011;54;20280;-64
2022/09/10 05:17:05;;;;;;;7.05;3.78;;;16.70;99.90;;;;;;2613629;39;20464;-64
2022/09/10 05:19:34;;;;;;;5.45;3.53;;;16.70;99.90;;;;;;2613424;54;20675;-64
2022/09/10 05:22:04;;;;;;;7.35;3.78;;;16.70;99.90;;;;;;2613005;47;20300;-66
2022/09/10 05:24:34;;;;;;;8.30;4.00;;;16.60;99.90;;;;;;2613324;47;20206;-65
2022/09/10 05:27:04;;;;;;;6.40;4.05;;;16.60;99.90;;;;;;2613354;54;20734;-65
2022/09/10 05:29:33;;;;;;;10.60;4.40;;;16.60;99.90;;;;;;2616240;54;20172;-65
2022/09/10 05:32:08;;;;;;;6.45;4.22;;;16.60;99.90;;;;;;2614880;52;20200;-65
2022/09/10 05:34:38;;;;;;;7.57;4.05;;;16.60;99.90;;;;;;2613778;54;20224;-65
2022/09/10 05:37:10;;;;;;;6.95;4.40;;;16.60;99.90;;;;;;2613040;47;20160;-66
2022/09/10 05:39:40;;;;;;;8.90;4.63;;;16.50;99.90;;;;;;2614050;47;20845;-66
2022/09/10 05:42:10;;;;;;;10.75;4.65;;;16.50;99.90;;;;;;2613879;54;20418;-67
2022/09/10 05:44:40;;;;;;;8.57;4.45;;;16.50;99.90;;;;;;2616016;54;20152;-67
2022/09/10 05:47:12;;;;;;;11.43;5.05;;;16.50;99.90;;;;;;2613837;54;20156;-67
2022/09/10 05:49:42;;;;;;;7.68;4.68;;;16.50;99.90;;;;;;2615945;47;20195;-67
2022/09/10 05:52:11;;;;;;;9.75;5.53;;;16.50;99.90;;;;;;2620034;47;20195;-68
2022/09/10 05:54:41;;;;;;;8.18;4.93;;;16.50;99.90;;;;;;2621072;54;20219;-66
2022/09/10 05:57:11;;;;;;;8.20;5.50;;;16.50;99.90;;;;;;2621801;51;20172;-67
2022/09/10 05:59:40;;;;;;;10.68;4.95;;;16.50;99.90;;;;;;2620642;54;20157;-67
2022/09/10 06:02:17;;;;;;;10.73;4.72;;;16.50;99.90;;;;;;2617168;54;20188;-68
2022/09/10 06:04:52;;;;;;;7.45;4.70;;;16.50;99.90;;;;;;2617543;39;20593;-67
2022/09/10 06:07:22;;;;;;;8.15;5.05;;;16.50;99.90;;;;;;2613010;51;20179;-67
2022/09/10 06:09:51;;;;;;;8.63;4.93;;;16.50;99.90;;;;;;2620305;54;20144;-68
2022/09/10 06:12:21;;;;;;;6.40;4.63;;;16.50;99.90;;;;;;2622225;54;20215;-66
2022/09/10 06:14:51;;;;;;;6.57;4.15;;;16.50;99.90;;;;;;2621403;39;20423;-66
2022/09/10 06:17:23;;;;;;;6.47;4.57;;;16.40;99.90;;;;;;2613526;54;20159;-67
2022/09/10 06:19:53;;;;;;;6.88;4.40;;;16.50;99.90;;;;;;2615260;54;20164;-66
2022/09/10 06:22:23;;;;;;;8.50;4.55;;;16.40;99.90;;;;;;2624569;39;20765;-66
2022/09/10 06:24:54;;;;;;;4.82;4.22;;;16.40;99.90;;;;;;2617323;54;20223;-65
2022/09/10 06:27:25;;;;;;;6.45;4.32;;;16.50;99.90;;;;;;2612567;54;20153;-63
2022/09/10 06:29:55;;;;;;;8.35;4.68;;;16.50;99.90;;;;;;2613087;54;20272;-64
2022/09/10 06:32:27;;;;;;;9.98;4.75;;;16.50;99.90;;;;;;2613062;47;20231;-64
2022/09/10 06:34:57;;;;;;;4.88;3.72;;;16.50;99.90;;;;;;2614636;47;20200;-64
2022/09/10 06:37:26;;;;;;;5.13;4.40;;;16.50;99.90;;;;;;2612528;54;20244;-64
2022/09/10 06:39:56;;;;;;;8.25;5.20;;;16.50;99.90;;;;;;2613696;54;20204;-64
2022/09/10 06:42:26;;;;;;;8.25;4.95;;;16.50;99.90;;;;;;2614441;39;20610;-64
2022/09/10 06:44:56;;;;;;;5.35;4.32;;;16.50;99.90;;;;;;2614314;54;20165;-64
2022/09/10 06:47:28;;;;;;;8.85;4.47;;;16.50;99.90;;;;;;2613850;54;20168;-64
2022/09/10 06:50:18;;;;;;;7.28;4.30;;;16.50;99.90;;;;;;2611826;47;20156;-64
2022/09/10 06:52:48;;;;;;;6.68;4.35;;;16.50;99.90;;;;;;2613493;54;20190;-63
2022/09/10 06:55:17;;;;;;;7.15;4.50;;;16.50;99.90;;;;;;2615830;54;20185;-65
2022/09/10 06:57:47;;;;;;;4.53;4.13;;;16.50;99.90;;;;;;2615376;54;20164;-64
2022/09/10 07:00:18;;;;;;;5.93;4.22;;;16.60;99.90;;;;;;2615395;54;20160;-65
2022/09/10 07:02:50;;;;;;;6.70;3.90;;;16.60;99.90;;;;;;2615032;47;20227;-64
2022/09/10 07:05:20;;;;;;;4.78;3.53;;;16.60;99.90;;;;;;2614369;47;20168;-64
2022/09/10 07:07:49;;;;;;;4.85;3.83;;;16.70;99.90;;;;;;2611969;51;22151;-66
2022/09/10 07:10:19;;;;;;;10.48;4.20;;;16.60;99.90;;;;;;2613692;54;20281;-64
2022/09/10 07:12:49;;;;;;;5.78;3.97;;;16.70;99.90;;;;;;2614052;54;20189;-64
2022/09/10 07:15:18;;;;;;;5.50;3.55;;;16.70;99.90;;;;;;2613063;51;20204;-65
2022/09/10 07:17:50;;;;;;;5.40;3.60;;;16.80;99.90;;;;;;2613149;54;20255;-64
2022/09/10 07:20:23;;;;;;;6.50;3.83;;;16.80;99.90;;;;;;2611593;54;20199;-64
2022/09/10 07:22:55;;;;;;;6.18;3.70;;;16.80;99.90;;;;;;2614427;54;20307;-64
2022/09/10 07:25:26;;;;;;;4.40;3.80;;;16.70;99.90;;;;;;2613802;47;20204;-64
2022/09/10 07:27:55;;;;;;;5.00;4.03;;;16.80;99.90;;;;;;2612398;54;20238;-65
2022/09/10 07:30:26;;;;;;;5.93;3.60;;;16.80;99.90;;;;;;2616786;47;21422;-64
2022/09/10 07:32:58;;;;;;;5.07;3.80;;;16.80;99.90;;;;;;2613699;54;20316;-64
2022/09/10 07:35:28;;;;;;;5.97;3.92;;;16.90;99.90;;;;;;2616443;54;20734;-65
2022/09/10 07:37:58;;;;;;;5.22;3.85;;;16.90;99.90;;;;;;2622968;54;20152;-63
2022/09/10 07:40:29;;;;;;;6.22;4.32;;;16.90;99.90;;;;;;2624222;39;20578;-64
2022/09/10 07:43:00;;;;;;;6.55;3.42;;;17.00;99.90;;;;;;2617035;54;20223;-63
2022/09/10 07:45:30;;;;;;;6.45;3.50;;;17.00;99.90;;;;;;2614608;54;20160;-63
2022/09/10 07:48:02;;;;;;;4.97;3.08;;;17.00;99.90;;;;;;2612802;54;20158;-64
2022/09/10 07:50:32;;;;;;;6.85;3.15;;;17.10;99.90;;;;;;2614076;39;20552;-64
2022/09/10 07:53:02;;;;;;;5.47;3.63;;;17.20;99.90;;;;;;2614838;54;20785;-64
2022/09/10 07:55:31;;;;;;;5.55;3.67;;;17.30;99.90;;;;;;2614131;54;20187;-64
2022/09/10 07:58:01;;;;;;;4.93;3.47;;;17.40;99.90;;;;;;2609082;47;20707;-63
2022/09/10 08:00:31;;;;;;;6.18;3.00;;;17.40;99.90;;;;;;2611699;39;20277;-64
2022/09/10 08:03:03;;;;;;;4.47;2.65;;;17.50;99.90;;;;;;2613598;54;20247;-63
2022/09/10 08:05:33;;;;;;;4.90;2.40;;;17.50;99.90;;;;;;2613050;31;20858;-60
2022/09/10 08:08:03;;;;;;;4.53;2.47;;;17.50;99.90;;;;;;2611848;51;20302;-58
2022/09/10 08:10:33;;;;;;;5.15;2.70;;;17.50;99.90;;;;;;2612860;54;20180;-59
2022/09/10 08:13:03;;;;;;;4.38;2.85;;;17.50;99.90;;;;;;2613505;54;20303;-59
2022/09/10 08:15:34;;;;;;;4.55;2.67;;;17.50;99.90;;;;;;2612969;47;20256;-58
2022/09/10 08:18:07;;;;;;;5.80;2.50;;;17.60;99.90;;;;;;2610955;47;20153;-61
2022/09/10 08:20:37;;;;;;;7.70;2.70;;;17.60;99.90;;;;;;2609624;47;20160;-60
2022/09/10 08:23:07;;;;;;;6.03;2.28;;;17.70;99.90;;;;;;2611728;39;20553;-59
2022/09/10 08:25:36;;;;;;;8.35;2.28;;;17.70;99.90;;;;;;2610858;54;20195;-59
2022/09/10 08:28:07;;;;;;;3.17;2.30;;;17.90;99.90;;;;;;2611571;52;20236;-59
2022/09/10 08:30:36;;;;;;;3.28;2.53;;;17.90;99.90;;;;;;2611400;54;20157;-60
2022/09/10 08:33:09;;;;;;;5.47;2.10;;;17.90;99.90;;;;;;2612966;54;20199;-58
2022/09/10 08:35:38;;;;;;;5.68;2.00;;;18.00;99.90;;;;;;2614718;54;20187;-58
2022/09/10 08:38:09;;;;;;;2.60;2.00;;;18.10;99.90;;;;;;2611611;47;20212;-59
2022/09/10 08:40:43;;;;;;;3.40;2.08;;;18.00;99.90;;;;;;2612771;47;20232;-65
2022/09/10 08:43:14;;;;;;;3.40;2.00;;;18.00;99.90;;;;;;2612804;54;20346;-64
2022/09/10 08:45:50;;;;;;;2.97;2.25;;;18.00;99.90;;;;;;2613728;54;20329;-64
2022/09/10 08:48:24;;;;;;;4.43;2.05;;;18.00;99.90;;;;;;2612516;47;20168;-64
2022/09/10 08:50:58;;;;;;;3.55;2.15;;;18.00;99.90;;;;;;2611953;49;20207;-64
2022/09/10 08:53:33;;;;;;;5.05;2.35;;;18.00;99.90;;;;;;2617679;54;20205;-65
2022/09/10 08:56:10;;;;;;;2.78;2.00;;;18.00;99.90;;;;;;2620497;54;20168;-66
2022/09/10 08:58:44;;;;;;;5.15;2.50;;;18.00;99.90;;;;;;2620874;54;20160;-64
2022/09/10 09:01:23;;;;;;;5.10;2.35;;;18.00;99.90;;;;;;2616531;47;20216;-64
2022/09/10 09:03:58;;;;;;;6.63;2.08;;;18.00;99.90;;;;;;2613935;39;20558;-65
2022/09/10 09:06:40;;;;;;;4.75;2.05;;;18.00;99.90;;;;;;2613781;54;20292;-64
2022/09/10 09:09:13;;;;;;;7.50;2.53;;;17.90;99.90;;;;;;2612971;47;20223;-63
2022/09/10 09:11:56;;;;;;;3.97;2.03;;;17.90;99.90;;;;;;2613267;54;20185;-64
2022/09/10 09:14:41;;;;;;;6.60;2.38;;;17.90;99.90;;;;;;2616944;54;20200;-65
2022/09/10 09:17:35;;;;;;;6.00;2.50;;;17.80;99.90;;;;;;2614490;47;20191;-66
2022/09/10 09:20:16;;;;;;;8.68;2.15;;;17.80;99.90;;;;;;2614472;54;20703;-65
2022/09/10 09:22:53;;;;;;;5.90;1.80;;;17.90;99.90;;;;;;2620159;54;20192;-65
2022/09/10 09:25:26;;;;;;;7.80;2.30;;;17.90;99.90;;;;;;2619194;51;20172;-64
2022/09/10 09:27:57;;;;;;;4.82;1.95;;;17.90;99.90;;;;;;2616202;54;20200;-64
2022/09/10 09:30:32;;;;;;;8.05;2.20;;;17.90;99.90;;;;;;2613922;54;20207;-63
2022/09/10 09:33:08;;;;;;;7.35;1.95;;;17.90;99.90;;;;;;2612672;54;20188;-64
2022/09/10 09:35:47;;;;;;;11.73;2.47;;;17.90;99.90;;;;;;2613464;51;20164;-64
2022/09/10 09:38:22;;;;;;;4.88;1.80;;;17.90;99.90;;;;;;2612835;54;20179;-63
2022/09/10 09:40:55;;;;;;;4.85;1.98;;;17.80;99.90;;;;;;2612649;54;20159;-63
2022/09/10 09:43:34;;;;;;;7.22;2.28;;;17.70;99.90;;;;;;2617982;47;20165;-63
2022/09/10 09:46:04;;;;;;;10.00;2.50;;;17.70;99.90;;;;;;2616971;54;20196;-62
2022/09/10 09:48:41;;;;;;;7.53;2.30;;;17.80;99.90;;;;;;2617760;54;20947;-63
2022/09/10 09:51:19;;;;;;;6.70;1.95;;;17.70;99.90;;;;;;2617035;47;20188;-64
2022/09/10 09:53:51;;;;;;;4.88;1.77;;;17.60;99.90;;;;;;2617712;47;20168;-63
2022/09/10 09:56:44;;;;;;;4.65;2.17;;;17.50;99.90;;;;;;2618135;47;20276;-62
2022/09/10 09:59:29;;;;;;;3.65;2.05;;;17.60;99.90;;;;;;2612669;54;20174;-64
2022/09/10 10:02:06;;;;;;;3.67;1.77;;;17.70;99.90;;;;;;2613461;54;20355;-63
2022/09/10 10:04:36;;;;;;;8.90;1.98;;;17.70;99.90;;;;;;2613017;47;20695;-63
2022/09/10 10:07:13;;;;;;;5.57;1.80;;;17.70;99.90;;;;;;2614110;54;20164;-64
2022/09/10 10:09:45;;;;;;;5.97;1.70;;;17.80;99.90;;;;;;2616927;47;20204;-62
2022/09/10 10:12:21;;;;;;;5.32;1.60;;;17.70;99.90;;;;;;2619709;54;20200;-63
2022/09/10 10:14:51;;;;;;;5.07;1.70;;;17.70;99.90;;;;;;2617039;54;20177;-62
2022/09/10 10:17:33;;;;;;;5.03;1.52;;;17.70;99.90;;;;;;2613472;54;20144;-63
2022/09/10 10:20:09;;;;;;;5.65;2.00;;;17.70;99.90;;;;;;2612964;54;20307;-63
2022/09/10 10:22:43;;;;;;;4.78;1.42;;;17.70;99.90;;;;;;2616012;47;20195;-62
2022/09/10 10:25:40;;;;;;;4.63;1.80;;;17.70;99.90;;;;;;2613623;47;20264;-62
2022/09/10 10:28:17;;;;;;;4.78;1.40;;;17.80;99.90;;;;;;2614094;47;20157;-63
2022/09/10 10:30:53;;;;;;;3.08;1.10;;;17.80;99.90;;;;;;2614196;39;20570;-64
2022/09/10 10:33:30;;;;;;;2.15;0.90;;;17.90;99.90;;;;;;2614573;54;20163;-64
2022/09/10 10:36:10;;;;;;;3.08;0.70;;;18.00;99.90;;;;;;2621433;47;20167;-63
2022/09/10 10:38:46;;;;;;;4.22;1.00;;;18.10;99.90;;;;;;2616603;47;20168;-64
2022/09/10 10:41:50;;;;;;;2.38;0.88;;;18.30;99.90;;;;;;2612506;54;20296;-66
2022/09/10 10:44:44;;;;;;;4.70;0.80;;;18.50;99.90;;;;;;2617124;54;20404;-66
2022/09/10 10:47:33;;;;;;;2.47;0.85;;;18.50;99.90;;;;;;2614046;47;20193;-66
2022/09/10 10:50:11;;;;;;;1.60;0.80;;;18.70;99.90;;;;;;2615463;31;20893;-64
2022/09/10 10:52:50;;;;;;;2.55;1.00;;;18.90;99.90;;;;;;2613216;54;20191;-64
2022/09/10 10:55:27;;;;;;;2.13;0.93;;;19.20;99.90;;;;;;2614938;47;20168;-64
2022/09/10 10:58:19;;;;;;;2.30;0.85;;;19.40;99.90;;;;;;2614923;54;20683;-65
2022/09/10 11:00:53;;;;;;;4.07;1.00;;;19.50;99.90;;;;;;2614728;54;20687;-64
2022/09/10 11:03:28;;;;;;;1.10;0.47;;;19.40;99.90;;;;;;2613488;47;20288;-65
2022/09/10 11:06:05;;;;;;;1.73;0.70;;;19.50;99.90;;;;;;2614314;51;20737;-65
2022/09/10 11:08:41;;;;;;;2.75;0.50;;;19.60;99.90;;;;;;2613806;54;20177;-65
2022/09/10 11:11:19;;;;;;;0.80;0.70;;;19.70;99.90;;;;;;2614662;54;20181;-65
2022/09/10 11:13:55;;;;;;;1.77;0.55;;;19.70;99.90;;;;;;2614085;54;20160;-64
2022/09/10 11:16:30;;;;;;;1.55;0.50;;;19.70;99.90;;;;;;2615601;54;20144;-65
2022/09/10 11:19:07;;;;;;;1.08;0.60;;;19.50;99.90;;;;;;2614564;52;20279;-66
2022/09/10 11:21:42;;;;;;;0.85;0.60;;;19.40;99.90;;;;;;2613951;47;20303;-65
2022/09/10 11:24:15;;;;;;;5.10;0.70;;;19.50;99.90;;;;;;2618096;54;20152;-64
2022/09/10 11:26:55;;;;;;;2.25;0.52;;;19.60;99.90;;;;;;2622353;54;20187;-64
2022/09/10 11:29:35;;;;;;;1.63;0.65;;;19.80;99.90;;;;;;2620723;47;20183;-63
2022/09/10 11:32:10;;;;;;;2.97;0.80;;;20.00;99.90;;;;;;2622919;54;20188;-61
2022/09/10 11:34:50;;;;;;;2.80;0.73;;;20.00;99.90;;;;;;2614936;54;20291;-61
2022/09/10 11:37:26;;;;;;;3.72;0.98;;;19.90;99.90;;;;;;2615442;54;20207;-61
2022/09/10 11:40:00;;;;;;;2.67;0.85;;;20.00;99.90;;;;;;2617619;54;20167;-60
2022/09/10 11:42:40;;;;;;;1.77;0.80;;;19.90;99.90;;;;;;2619818;54;20232;-61
2022/09/10 11:45:22;;;;;;;2.05;0.80;;;20.00;99.90;;;;;;2623914;39;20585;-61
2022/09/10 11:47:59;;;;;;;2.45;0.90;;;20.10;99.90;;;;;;2623570;54;20145;-62
2022/09/10 11:50:35;;;;;;;2.95;0.90;;;20.20;99.90;;;;;;2622347;54;20172;-63
2022/09/10 11:53:06;;;;;;;2.55;0.90;;;20.40;99.90;;;;;;2622973;54;20203;-61
2022/09/10 11:55:48;;;;;;;0.70;0.65;;;20.30;99.90;;;;;;2622201;47;21547;-60
2022/09/10 11:58:29;;;;;;;3.40;0.70;;;20.40;99.90;;;;;;2616292;54;20687;-61
2022/09/10 12:01:08;;;;;;;1.73;0.70;;;20.30;99.90;;;;;;2614220;47;20164;-61
2022/09/10 12:04:04;;;;;;;2.38;0.93;;;20.30;99.90;;;;;;2614923;54;20675;-61
2022/09/10 12:06:41;;;;;;;1.13;0.70;;;20.40;99.90;;;;;;2614943;47;20168;-61
2022/09/10 12:09:19;;;;;;;1.15;0.68;;;20.50;99.90;;;;;;2614843;47;20179;-61
2022/09/10 12:11:55;;;;;;;0.50;0.50;;;20.60;99.90;;;;;;2612847;47;20780;-61
2022/09/10 12:14:27;;;;;;;1.02;0.70;;;21.10;99.90;;;;;;2615394;47;20257;-61
2022/09/10 12:16:59;;;;;;;3.22;0.80;;;21.30;99.90;;;;;;2616077;47;20168;-61
2022/09/10 12:19:33;;;;;;;1.00;0.68;;;21.50;99.90;;;;;;2614000;54;20160;-61
2022/09/10 12:22:06;;;;;;;2.78;0.50;;;21.60;99.90;;;;;;2614306;47;20294;-60
2022/09/10 12:24:38;;;;;;;1.45;0.80;;;21.70;99.90;;;;;;2615259;54;20248;-60
2022/09/10 12:27:16;;;;;;;0.55;0.50;;;21.70;99.90;;;;;;2617977;54;20303;-62
2022/09/10 12:29:49;;;;;;;1.25;0.60;;;21.60;99.90;;;;;;2617963;47;20728;-62
2022/09/10 12:32:36;;;;;;;1.52;0.70;;;21.40;99.90;;;;;;2617708;47;20243;-61
2022/09/10 12:35:48;;;;;;;1.75;0.85;;;21.40;99.90;;;;;;2614176;47;20690;-59
2022/09/10 12:38:48;;;;;;;1.13;0.70;;;21.30;99.90;;;;;;2614514;47;20208;-60
2022/09/10 12:41:48;;;;;;;1.10;0.77;;;21.10;99.90;;;;;;2613231;54;20316;-65
2022/09/10 12:44:46;;;;;;;1.35;0.77;;;21.00;99.90;;;;;;2616581;54;20204;-65
2022/09/10 12:47:45;;;;;;;1.48;0.60;;;20.90;99.90;;;;;;2625825;54;20268;-67
2022/09/10 12:50:45;;;;;;;1.10;0.70;;;21.20;99.90;;;;;;2613719;47;20223;-65
2022/09/10 12:53:47;;;;;;;2.67;0.73;;;21.70;99.90;;;;;;2614640;54;20191;-65
2022/09/10 12:56:36;;;;;;;1.55;0.85;;;22.10;99.90;;;;;;2613654;47;20199;-69
2022/09/10 12:59:41;;;;;;;2.67;0.80;;;22.20;99.90;;;;;;2613189;54;20255;-64
2022/09/10 13:02:23;;;;;;;1.20;0.70;;;22.10;99.90;;;;;;2612681;47;20270;-65
2022/09/10 13:05:02;;;;;;;1.15;0.60;;;21.90;99.90;;;;;;2614714;47;20169;-65
2022/09/10 13:07:40;;;;;;;1.80;0.70;;;21.80;99.90;;;;;;2614771;47;20185;-65
2022/09/10 13:10:19;;;;;;;0.93;0.60;;;21.70;99.90;;;;;;2615322;47;20152;-66
2022/09/10 13:12:54;;;;;;;0.43;0.43;;;21.90;99.90;;;;;;2614651;54;20256;-65
2022/09/10 13:15:26;;;;;;;1.42;0.70;;;22.20;99.90;;;;;;2615021;54;20183;-66
2022/09/10 13:18:26;;;;;;;1.30;0.70;;;22.30;99.90;;;;;;2616382;54;20159;-65
2022/09/10 13:21:00;;;;;;;2.08;0.73;;;22.30;99.90;;;;;;2614319;39;20705;-64
2022/09/10 13:23:49;;;;;;;1.00;0.57;;;22.20;99.90;;;;;;2615081;54;20219;-64